createdAt,value
2023-01-09T00:01:27.815Z,63.25
2023-01-09T00:03:54.823Z,62.86
2023-01-09T00:06:21.413Z,63.64
2023-01-09T00:08:48.463Z,64.71
2023-01-09T00:11:15.027Z,65.68
2023-01-09T00:13:41.734Z,67.70
2023-01-09T00:16:08.898Z,68.47
2023-01-09T00:18:36.253Z,69.28
2023-01-09T00:21:05.203Z,69.23
2023-01-09T00:23:31.762Z,70.07
2023-01-09T00:26:11.936Z,70.16
2023-01-09T00:28:38.897Z,69.73
2023-01-09T00:31:06.896Z,70.07
2023-01-09T00:33:44.833Z,70.77
2023-01-09T00:36:12.223Z,70.93
2023-01-09T00:38:39.417Z,70.89
2023-01-09T00:41:08.103Z,71.18
2023-01-09T00:43:40.184Z,72.31
2023-01-09T00:46:07.873Z,72.13
2023-01-09T00:48:35.549Z,71.75
2023-01-09T00:51:02.022Z,72.05
2023-01-09T00:53:31.761Z,72.14
2023-01-09T00:56:00.282Z,74.06
2023-01-09T00:58:26.827Z,74.03
2023-01-09T01:00:53.475Z,75.30
2023-01-09T01:03:20.040Z,73.53
2023-01-09T01:06:05.271Z,73.05
2023-01-09T01:08:31.750Z,72.66
2023-01-09T01:10:58.261Z,73.31
2023-01-09T01:13:24.706Z,73.83
2023-01-09T01:15:51.202Z,74.11
2023-01-09T01:18:18.191Z,73.85
2023-01-09T01:20:44.995Z,73.47
2023-01-09T01:23:11.533Z,72.50
2023-01-09T01:25:42.501Z,74.13
2023-01-09T01:28:10.320Z,73.74
2023-01-09T01:30:41.262Z,73.22
2023-01-09T01:33:08.752Z,72.86
2023-01-09T01:35:35.426Z,75.03
2023-01-09T01:38:02.254Z,74.10
2023-01-09T01:40:29.491Z,74.67
2023-01-09T01:42:56.719Z,74.48
2023-01-09T01:45:28.341Z,74.88
2023-01-09T01:48:06.134Z,74.77
2023-01-09T01:50:35.743Z,75.00
2023-01-09T01:53:05.067Z,73.31
2023-01-09T01:55:34.230Z,73.91
2023-01-09T01:58:02.817Z,75.18
2023-01-09T02:00:35.051Z,74.92
2023-01-09T02:03:02.148Z,74.16
2023-01-09T02:05:28.940Z,73.09
2023-01-09T02:07:55.651Z,73.18
2023-01-09T02:10:23.635Z,73.41
2023-01-09T02:12:50.723Z,74.11
2023-01-09T02:15:18.394Z,73.67
2023-01-09T02:17:56.978Z,73.19
2023-01-09T02:20:29.761Z,73.02
2023-01-09T02:23:24.189Z,72.52
2023-01-09T02:26:08.917Z,72.36
2023-01-09T02:28:38.409Z,72.22
2023-01-09T02:31:52.247Z,72.07
2023-01-09T02:34:56.487Z,72.34
2023-01-09T02:37:29.190Z,72.46
2023-01-09T02:40:28.179Z,71.96
2023-01-09T02:42:57.494Z,71.66
2023-01-09T02:45:24.024Z,71.42
2023-01-09T02:47:51.350Z,72.00
2023-01-09T02:51:02.591Z,71.36
2023-01-09T02:53:55.863Z,70.87
2023-01-09T02:56:39.344Z,72.08
2023-01-09T02:59:20.878Z,71.93
2023-01-09T03:02:08.597Z,71.06
2023-01-09T03:04:42.660Z,71.45
2023-01-09T03:07:21.959Z,71.03
2023-01-09T03:09:50.674Z,71.23
2023-01-09T03:12:21.053Z,70.87
2023-01-09T03:14:56.519Z,70.77
2023-01-09T03:17:27.533Z,70.44
2023-01-09T03:19:54.845Z,71.09
2023-01-09T03:22:21.349Z,69.71
2023-01-09T03:24:48.030Z,70.55
2023-01-09T03:27:15.107Z,70.75
2023-01-09T03:29:41.779Z,71.25
2023-01-09T03:32:08.649Z,71.05
2023-01-09T03:34:35.163Z,69.96
2023-01-09T03:37:01.853Z,71.22
2023-01-09T03:39:28.460Z,70.07
2023-01-09T03:41:54.951Z,71.18
2023-01-09T03:44:22.003Z,70.70
2023-01-09T03:46:50.174Z,71.14
2023-01-09T03:49:17.713Z,71.25
2023-01-09T03:51:44.230Z,70.91
2023-01-09T03:54:10.782Z,70.67
2023-01-09T03:56:37.316Z,70.44
2023-01-09T03:59:03.834Z,70.06
2023-01-09T04:01:30.433Z,70.57
2023-01-09T04:03:57.127Z,70.63
2023-01-09T04:06:23.821Z,70.26
2023-01-09T04:08:50.625Z,70.28
2023-01-09T04:11:18.126Z,69.36
2023-01-09T04:13:45.177Z,70.38
2023-01-09T04:16:11.881Z,69.87
2023-01-09T04:18:38.505Z,69.10
2023-01-09T04:21:05.062Z,69.62
2023-01-09T04:23:31.546Z,69.21
2023-01-09T04:25:58.325Z,69.23
2023-01-09T04:28:24.833Z,68.87
2023-01-09T04:30:51.345Z,69.09
2023-01-09T04:33:17.917Z,67.98
2023-01-09T04:35:44.424Z,68.87
2023-01-09T04:38:10.925Z,67.42
2023-01-09T04:40:37.496Z,67.99
2023-01-09T04:43:04.019Z,66.85
2023-01-09T04:45:30.527Z,68.15
2023-01-09T04:47:57.431Z,69.14
2023-01-09T04:50:23.934Z,67.83
2023-01-09T04:52:50.438Z,66.99
2023-01-09T04:55:17.219Z,67.97
2023-01-09T04:57:43.678Z,66.40
2023-01-09T05:00:12.155Z,67.19
2023-01-09T05:02:39.420Z,66.40
2023-01-09T05:05:11.270Z,66.30
2023-01-09T05:07:38.203Z,66.74
2023-01-09T05:10:05.358Z,66.24
2023-01-09T05:12:31.998Z,65.30
2023-01-09T05:14:58.695Z,65.23
2023-01-09T05:17:25.229Z,65.79
2023-01-09T05:19:51.873Z,65.65
2023-01-09T05:22:18.717Z,65.73
2023-01-09T05:24:45.251Z,65.40
2023-01-09T05:27:11.783Z,65.24
2023-01-09T05:29:38.352Z,65.25
2023-01-09T05:32:05.193Z,66.25
2023-01-09T05:34:31.739Z,65.93
2023-01-09T05:36:58.239Z,66.66
2023-01-09T05:39:24.729Z,66.26
2023-01-09T05:41:51.223Z,65.74
2023-01-09T05:44:17.787Z,66.34
2023-01-09T05:46:44.305Z,65.60
2023-01-09T05:49:10.881Z,66.72
2023-01-09T05:51:37.509Z,65.36
2023-01-09T05:54:05.405Z,65.42
2023-01-09T05:56:31.943Z,65.56
2023-01-09T05:58:58.473Z,66.30
2023-01-09T06:01:25.265Z,66.87
2023-01-09T06:03:51.882Z,65.69
2023-01-09T06:06:18.451Z,65.77
2023-01-09T06:08:44.967Z,66.46
2023-01-09T06:11:11.455Z,65.05
2023-01-09T06:13:38.287Z,64.79
2023-01-09T06:16:05.356Z,64.19
2023-01-09T06:18:31.897Z,63.77
2023-01-09T06:20:58.384Z,64.15
2023-01-09T06:23:24.941Z,64.85
2023-01-09T06:25:51.522Z,63.76
2023-01-09T06:28:18.010Z,63.81
2023-01-09T06:30:44.676Z,63.08
2023-01-09T06:33:11.722Z,62.06
2023-01-09T06:35:38.217Z,63.08
2023-01-09T06:38:05.205Z,63.08
2023-01-09T06:40:31.713Z,63.30
2023-01-09T06:42:58.325Z,62.19
2023-01-09T06:45:24.842Z,61.62
2023-01-09T06:47:51.781Z,62.11
2023-01-09T06:50:18.379Z,61.14
2023-01-09T06:52:44.972Z,62.09
2023-01-09T06:55:11.803Z,62.08
2023-01-09T06:57:38.356Z,61.88
2023-01-09T07:00:05.893Z,62.31
2023-01-09T07:02:32.399Z,62.49
2023-01-09T07:04:58.951Z,62.27
2023-01-09T07:07:25.434Z,63.07
2023-01-09T07:09:51.953Z,63.12
2023-01-09T07:12:18.863Z,63.20
2023-01-09T07:14:45.494Z,62.82
2023-01-09T07:17:13.376Z,64.46
2023-01-09T07:19:39.940Z,64.94
2023-01-09T07:22:06.654Z,65.60
2023-01-09T07:24:33.220Z,66.04
2023-01-09T07:26:59.756Z,65.91
2023-01-09T07:29:26.207Z,66.88
2023-01-09T07:31:52.705Z,66.70
2023-01-09T07:34:19.579Z,67.68
2023-01-09T07:36:46.714Z,67.70
2023-01-09T07:39:13.678Z,67.92
2023-01-09T07:41:40.280Z,68.91
2023-01-09T07:44:08.995Z,67.94
2023-01-09T07:46:36.844Z,67.99
2023-01-09T07:49:03.519Z,67.09
2023-01-09T07:51:30.054Z,67.20
2023-01-09T07:53:56.534Z,67.15
2023-01-09T07:56:23.103Z,66.69
2023-01-09T07:58:49.587Z,65.73
2023-01-09T08:01:16.772Z,65.78
2023-01-09T08:03:43.332Z,65.79
2023-01-09T08:06:10.299Z,66.33
2023-01-09T08:08:36.813Z,65.52
2023-01-09T08:11:03.561Z,64.54
2023-01-09T08:13:30.236Z,65.61
2023-01-09T08:15:56.917Z,64.46
2023-01-09T08:18:23.532Z,64.52
2023-01-09T08:20:50.165Z,64.40
2023-01-09T08:23:16.699Z,65.58
2023-01-09T08:25:43.246Z,66.44
2023-01-09T08:28:09.865Z,66.61
2023-01-09T08:30:36.736Z,66.40
2023-01-09T08:33:03.787Z,66.59
2023-01-09T08:35:30.343Z,66.12
2023-01-09T08:37:56.908Z,66.34
2023-01-09T08:40:23.426Z,65.78
2023-01-09T08:43:08.669Z,65.45
2023-01-09T08:45:54.015Z,64.86
2023-01-09T08:48:20.594Z,65.33
2023-01-09T08:50:47.245Z,65.50
2023-01-09T08:53:13.799Z,64.13
2023-01-09T08:55:42.530Z,62.51
2023-01-09T08:58:09.004Z,62.55
2023-01-09T09:00:35.821Z,61.81
2023-01-09T09:03:02.501Z,60.57
2023-01-09T09:05:30.800Z,64.12
2023-01-09T09:07:57.923Z,62.74
2023-01-09T09:10:26.732Z,62.96
2023-01-09T09:12:54.892Z,61.36
2023-01-09T09:15:25.224Z,61.17
2023-01-09T09:18:00.682Z,63.23
2023-01-09T09:20:38.721Z,60.99
2023-01-09T09:23:06.521Z,62.37
2023-01-09T09:25:33.007Z,63.42
2023-01-09T09:28:01.248Z,65.00
2023-01-09T09:30:28.101Z,65.22
2023-01-09T09:32:54.692Z,64.47
2023-01-09T09:35:22.498Z,64.41
2023-01-09T09:38:04.811Z,63.12
2023-01-09T09:40:35.253Z,63.44
2023-01-09T09:43:30.068Z,64.02
2023-01-09T09:46:03.017Z,62.64
2023-01-09T09:48:48.787Z,62.98
2023-01-09T09:51:18.843Z,64.74
2023-01-09T09:53:54.839Z,65.50
2023-01-09T09:56:23.352Z,66.01
2023-01-09T09:58:53.532Z,64.65
2023-01-09T10:01:24.134Z,64.44
2023-01-09T10:04:00.850Z,65.04
2023-01-09T10:06:34.035Z,66.15
2023-01-09T10:09:25.632Z,67.36
2023-01-09T10:11:55.254Z,68.43
2023-01-09T10:14:24.531Z,67.60
2023-01-09T10:17:00.222Z,68.99
2023-01-09T10:19:36.043Z,67.21
2023-01-09T10:22:05.592Z,68.53
2023-01-09T10:24:47.382Z,69.20
2023-01-09T10:27:21.755Z,69.73
2023-01-09T10:30:03.474Z,70.74
2023-01-09T10:32:45.732Z,70.74
2023-01-09T10:35:23.448Z,70.75
2023-01-09T10:37:53.300Z,69.98
2023-01-09T10:40:20.023Z,70.21
2023-01-09T10:42:53.127Z,70.56
2023-01-09T10:45:25.973Z,69.35
2023-01-09T10:47:58.177Z,70.12
2023-01-09T10:50:28.509Z,69.02
2023-01-09T10:52:56.453Z,69.25
2023-01-09T10:55:45.060Z,67.84
2023-01-09T10:58:13.851Z,68.46
2023-01-09T11:00:40.788Z,67.41
2023-01-09T11:03:12.492Z,67.69
2023-01-09T11:05:39.006Z,68.73
2023-01-09T11:08:08.628Z,67.66
2023-01-09T11:10:53.052Z,66.16
2023-01-09T11:13:34.529Z,65.41
2023-01-09T11:16:06.996Z,64.75
2023-01-09T11:18:35.378Z,62.23
2023-01-09T11:21:34.101Z,57.27
2023-01-09T11:24:32.904Z,55.52
2023-01-09T11:27:23.512Z,58.60
2023-01-09T11:30:10.731Z,60.11
2023-01-09T11:32:37.200Z,60.45
2023-01-09T11:35:14.074Z,60.98
2023-01-09T11:37:40.756Z,61.21
2023-01-09T11:40:17.080Z,61.58
2023-01-09T11:43:01.867Z,61.17
2023-01-09T11:45:31.740Z,60.88
2023-01-09T11:47:58.802Z,59.15
2023-01-09T11:50:27.416Z,57.81
2023-01-09T11:53:13.121Z,49.34
2023-01-09T11:55:42.833Z,40.19
2023-01-09T11:58:18.067Z,38.63
2023-01-09T12:01:03.555Z,44.87
2023-01-09T12:03:39.187Z,51.47
2023-01-09T12:06:14.878Z,49.70
2023-01-09T12:09:00.065Z,54.29
2023-01-09T12:11:58.310Z,56.90
2023-01-09T12:14:30.018Z,57.15
2023-01-09T12:17:33.907Z,59.00
2023-01-09T12:20:16.608Z,58.19
2023-01-09T12:23:12.985Z,58.88
2023-01-09T12:25:48.889Z,59.23
2023-01-09T12:28:40.512Z,58.87
2023-01-09T12:31:39.859Z,59.40
2023-01-09T12:34:40.451Z,59.71
2023-01-09T12:37:25.431Z,60.62
2023-01-09T12:40:07.100Z,65.06
2023-01-09T12:42:45.879Z,66.89
2023-01-09T12:45:55.318Z,67.60
2023-01-09T12:48:49.304Z,69.33
2023-01-09T12:51:47.865Z,70.68
2023-01-09T12:54:25.427Z,71.44
2023-01-09T12:56:58.304Z,72.21
2023-01-09T12:59:30.564Z,70.91
2023-01-09T13:02:44.921Z,71.79
2023-01-09T13:05:17.092Z,71.47
2023-01-09T13:07:56.601Z,72.48
2023-01-09T13:10:48.070Z,71.56
2023-01-09T13:13:25.665Z,71.75
2023-01-09T13:15:58.380Z,71.12
2023-01-09T13:18:40.925Z,71.64
2023-01-09T13:21:07.955Z,71.88
2023-01-09T13:23:46.408Z,71.43
2023-01-09T13:26:39.468Z,70.43
2023-01-09T13:29:16.265Z,71.00
2023-01-09T13:32:24.626Z,71.61
2023-01-09T13:34:53.923Z,71.67
2023-01-09T13:37:26.481Z,70.28
2023-01-09T13:39:59.357Z,69.74
2023-01-09T13:42:46.291Z,69.08
2023-01-09T13:45:18.605Z,68.87
2023-01-09T13:47:45.223Z,69.16
2023-01-09T13:50:11.773Z,68.17
2023-01-09T13:52:42.643Z,68.25
2023-01-09T13:55:12.151Z,68.94
2023-01-09T13:57:43.201Z,68.78
2023-01-09T14:00:12.893Z,69.37
2023-01-09T14:02:39.452Z,69.26
2023-01-09T14:05:12.209Z,68.74
2023-01-09T14:07:41.255Z,69.00
2023-01-09T14:10:19.924Z,68.01
2023-01-09T14:12:46.648Z,67.72
2023-01-09T14:15:44.953Z,66.98
2023-01-09T14:18:25.825Z,67.02
2023-01-09T14:20:55.418Z,67.81
2023-01-09T14:23:42.148Z,67.64
2023-01-09T14:26:18.011Z,67.26
2023-01-09T14:28:45.009Z,67.58
2023-01-09T14:31:27.518Z,68.00
2023-01-09T14:34:35.528Z,67.06
2023-01-09T14:37:02.615Z,67.54
2023-01-09T14:39:31.661Z,67.11
2023-01-09T14:42:06.498Z,66.18
2023-01-09T14:45:06.380Z,66.05
2023-01-09T14:47:57.864Z,66.64
2023-01-09T14:50:34.647Z,66.07
2023-01-09T14:53:05.835Z,65.80
2023-01-09T14:55:57.827Z,65.64
2023-01-09T14:58:27.205Z,65.86
2023-01-09T15:01:15.769Z,64.82
2023-01-09T15:03:44.850Z,65.19
2023-01-09T15:06:18.623Z,64.57
2023-01-09T15:08:46.384Z,65.02
2023-01-09T15:11:13.525Z,65.20
2023-01-09T15:13:46.611Z,65.29
2023-01-09T15:16:20.705Z,64.59
2023-01-09T15:18:54.570Z,65.21
2023-01-09T15:21:26.030Z,67.40
2023-01-09T15:23:53.207Z,67.29
2023-01-09T15:26:30.637Z,68.69
2023-01-09T15:29:04.560Z,69.25
2023-01-09T15:31:31.386Z,68.96
2023-01-09T15:33:57.870Z,70.05
2023-01-09T15:36:30.286Z,69.77
2023-01-09T15:38:56.787Z,69.85
2023-01-09T15:41:46.489Z,69.31
2023-01-09T15:44:19.840Z,69.74
2023-01-09T15:46:49.954Z,70.59
2023-01-09T15:49:17.345Z,71.81
2023-01-09T15:51:45.529Z,70.99
2023-01-09T15:54:17.600Z,70.76
2023-01-09T15:56:45.967Z,70.69
2023-01-09T15:59:30.907Z,71.14
2023-01-09T16:02:30.173Z,71.71
2023-01-09T16:04:56.706Z,71.23
2023-01-09T16:07:23.271Z,71.42
2023-01-09T16:09:52.753Z,71.18
2023-01-09T16:12:25.142Z,71.93
2023-01-09T16:14:57.417Z,72.55
2023-01-09T16:17:26.218Z,72.79
2023-01-09T16:19:57.947Z,74.33
2023-01-09T16:22:25.773Z,74.32
2023-01-09T16:24:55.718Z,74.18
2023-01-09T16:27:30.389Z,74.97
2023-01-09T16:30:01.921Z,75.29
2023-01-09T16:32:30.938Z,74.98
2023-01-09T16:35:05.488Z,74.71
2023-01-09T16:37:32.317Z,75.11
2023-01-09T16:40:04.912Z,75.07
2023-01-09T16:42:51.510Z,74.28
2023-01-09T16:45:17.986Z,73.79
2023-01-09T16:47:45.681Z,73.76
2023-01-09T16:50:13.389Z,74.04
2023-01-09T16:52:40.085Z,73.01
2023-01-09T16:55:06.823Z,72.03
2023-01-09T16:57:34.193Z,73.10
2023-01-09T17:00:01.377Z,75.08
2023-01-09T17:02:27.979Z,75.63
2023-01-09T17:04:59.140Z,74.85
2023-01-09T17:07:25.662Z,74.63
2023-01-09T17:09:53.280Z,73.97
2023-01-09T17:12:24.074Z,73.11
2023-01-09T17:14:50.635Z,74.60
2023-01-09T17:17:17.877Z,73.34
2023-01-09T17:19:46.604Z,74.76
2023-01-09T17:22:20.756Z,73.84
2023-01-09T17:25:08.648Z,73.38
2023-01-09T17:27:55.625Z,72.16
2023-01-09T17:30:22.119Z,71.32
2023-01-09T17:32:48.914Z,71.49
2023-01-09T17:35:16.230Z,72.53
2023-01-09T17:37:42.938Z,72.12
2023-01-09T17:40:18.322Z,72.31
2023-01-09T17:42:44.806Z,71.43
2023-01-09T17:45:11.652Z,72.68
2023-01-09T17:47:38.403Z,74.19
2023-01-09T17:50:05.899Z,74.89
2023-01-09T17:52:33.055Z,74.68
2023-01-09T17:55:05.219Z,74.89
2023-01-09T17:57:32.704Z,73.83
2023-01-09T17:59:59.199Z,74.89
2023-01-09T18:02:25.824Z,73.92
2023-01-09T18:04:52.520Z,73.76
2023-01-09T18:07:19.422Z,74.61
2023-01-09T18:09:45.995Z,74.13
2023-01-09T18:12:12.652Z,74.33
2023-01-09T18:14:40.655Z,73.90
2023-01-09T18:17:07.496Z,73.47
2023-01-09T18:19:34.140Z,75.07
2023-01-09T18:22:00.629Z,75.52
2023-01-09T18:24:27.248Z,75.54
2023-01-09T18:26:54.345Z,74.65
2023-01-09T18:29:21.339Z,74.49
2023-01-09T18:31:48.870Z,74.50
2023-01-09T18:34:15.360Z,74.32
2023-01-09T18:36:41.990Z,76.13
2023-01-09T18:39:09.540Z,74.90
2023-01-09T18:41:36.428Z,75.42
2023-01-09T18:44:02.994Z,75.53
2023-01-09T18:46:32.704Z,75.93
2023-01-09T18:49:01.616Z,75.73
2023-01-09T18:51:29.102Z,75.17
2023-01-09T18:53:56.084Z,75.13
2023-01-09T18:56:23.320Z,75.06
2023-01-09T18:58:52.594Z,74.40
2023-01-09T19:01:19.521Z,74.90
2023-01-09T19:03:46.160Z,73.16
2023-01-09T19:06:13.137Z,73.01
2023-01-09T19:08:39.950Z,72.99
2023-01-09T19:11:06.672Z,72.90
2023-01-09T19:13:35.196Z,72.79
2023-01-09T19:16:02.557Z,72.82
2023-01-09T19:18:32.318Z,73.58
2023-01-09T19:20:58.806Z,73.08
2023-01-09T19:23:25.295Z,71.69
2023-01-09T19:25:53.051Z,72.08
2023-01-09T19:28:20.766Z,71.70
2023-01-09T19:30:47.507Z,71.97
2023-01-09T19:33:14.219Z,71.56
2023-01-09T19:35:40.779Z,71.89
2023-01-09T19:38:07.793Z,71.54
2023-01-09T19:40:35.759Z,71.72
2023-01-09T19:43:02.211Z,70.80
2023-01-09T19:45:28.822Z,71.04
2023-01-09T19:47:56.351Z,70.79
2023-01-09T19:50:22.958Z,72.07
2023-01-09T19:52:50.849Z,71.43
2023-01-09T19:55:17.703Z,71.90
2023-01-09T19:57:45.086Z,71.61
2023-01-09T20:00:12.867Z,71.25
2023-01-09T20:02:40.579Z,70.30
2023-01-09T20:05:07.767Z,70.54
2023-01-09T20:07:34.873Z,69.52
2023-01-09T20:10:01.435Z,69.75
2023-01-09T20:12:27.940Z,69.58
2023-01-09T20:14:55.038Z,70.44
2023-01-09T20:17:21.656Z,70.32
2023-01-09T20:19:49.240Z,70.48
2023-01-09T20:22:15.746Z,70.67
2023-01-09T20:24:42.290Z,70.83
2023-01-09T20:27:08.978Z,71.32
2023-01-09T20:29:35.525Z,72.59
2023-01-09T20:32:06.222Z,72.23
2023-01-09T20:34:32.698Z,71.52
2023-01-09T20:36:59.448Z,71.90
2023-01-09T20:39:26.292Z,70.30
2023-01-09T20:41:52.845Z,70.67
2023-01-09T20:44:19.418Z,71.29
2023-01-09T20:46:49.399Z,72.81
2023-01-09T20:49:18.009Z,73.18
2023-01-09T20:51:47.116Z,72.62
2023-01-09T20:54:14.613Z,72.97
2023-01-09T20:56:41.337Z,72.49
2023-01-09T20:59:11.987Z,73.37
2023-01-09T21:01:40.192Z,72.83
2023-01-09T21:04:08.629Z,73.90
2023-01-09T21:06:35.916Z,71.95
2023-01-09T21:09:04.035Z,72.15
2023-01-09T21:11:30.527Z,73.27
2023-01-09T21:13:57.447Z,72.79
2023-01-09T21:16:24.679Z,73.83
2023-01-09T21:18:52.562Z,72.44
2023-01-09T21:21:22.243Z,72.97
2023-01-09T21:23:53.585Z,72.49
2023-01-09T21:26:26.544Z,72.40
2023-01-09T21:28:55.273Z,72.26
2023-01-09T21:31:25.261Z,73.01
2023-01-09T21:33:54.361Z,73.04
2023-01-09T21:36:21.799Z,72.25
2023-01-09T21:38:48.539Z,72.28
2023-01-09T21:41:35.304Z,73.29
2023-01-09T21:44:20.486Z,73.77
2023-01-09T21:46:53.358Z,72.70
2023-01-09T21:49:20.726Z,72.47
2023-01-09T21:51:47.518Z,72.78
2023-01-09T21:54:14.200Z,73.76
2023-01-09T21:56:40.736Z,74.27
2023-01-09T21:59:07.417Z,73.79
2023-01-09T22:01:33.941Z,74.43
2023-01-09T22:04:00.649Z,73.10
2023-01-09T22:06:28.403Z,73.05
2023-01-09T22:08:55.900Z,73.39
2023-01-09T22:11:22.713Z,73.95
2023-01-09T22:13:49.766Z,73.65
2023-01-09T22:16:17.046Z,74.66
2023-01-09T22:18:43.935Z,74.44
2023-01-09T22:21:10.801Z,74.69
2023-01-09T22:23:37.258Z,73.66
2023-01-09T22:26:11.369Z,73.36
2023-01-09T22:28:38.350Z,74.00
2023-01-09T22:31:09.536Z,72.99
2023-01-09T22:33:36.649Z,72.10
2023-01-09T22:36:11.476Z,71.96
2023-01-09T22:38:38.300Z,71.70
2023-01-09T22:41:05.365Z,72.48
2023-01-09T22:43:32.108Z,72.34
2023-01-09T22:46:05.527Z,72.26
2023-01-09T22:48:33.716Z,72.56
2023-01-09T22:51:05.908Z,72.65
2023-01-09T22:53:32.526Z,72.42
2023-01-09T22:56:03.884Z,71.46
2023-01-09T22:58:30.984Z,72.03
2023-01-09T23:00:57.812Z,71.65
2023-01-09T23:03:24.637Z,72.26
2023-01-09T23:06:05.341Z,72.17
2023-01-09T23:08:33.600Z,71.76
2023-01-09T23:11:00.609Z,71.33
2023-01-09T23:13:27.506Z,71.52
2023-01-09T23:15:54.484Z,71.38
2023-01-09T23:18:21.396Z,71.39
2023-01-09T23:20:52.849Z,72.20
2023-01-09T23:23:21.021Z,70.74
2023-01-09T23:25:53.358Z,71.46
2023-01-09T23:28:20.281Z,71.14
2023-01-09T23:30:47.434Z,71.22
2023-01-09T23:33:16.454Z,72.06
2023-01-09T23:35:44.152Z,72.19
2023-01-09T23:38:13.658Z,71.22
2023-01-09T23:40:43.998Z,71.23
2023-01-09T23:43:12.118Z,71.69
2023-01-09T23:45:43.494Z,71.70
2023-01-09T23:48:14.545Z,71.02
2023-01-09T23:50:48.592Z,72.01
2023-01-09T23:53:15.255Z,72.25
2023-01-09T23:55:41.785Z,72.25
2023-01-09T23:58:08.645Z,71.65
